EEEI

Ämari Air Base Airport

Keila, Estonia
METAR EEEI 161750Z 15008KT CAVOK M04/M05 Q0994 R24/290095 TEMPO 4000 SN
Observed Flight Rules
Jan-16 @ 17:50 UTC (47 minutes ago) Visual Flight Rules
Wind Visibility Clouds
150° at 8 knots 10,000+ meters
  • Clear skies
Temperatures Readings
Current -4°C / 25°F
Dewpoint -5°C / 23°F
Humidity 93%
Altimeter 29.35" Hg
Pressure 993.92 hPa
Elevation 20
METAR EEEI 161750Z 15008KT CAVOK M04/M05 Q0994 R24/290095 TEMPO 4000 SN
Observed Flight Rules
Jan-16 @ 17:50 UTC
(47 minutes ago)
VFR
Wind Visibility
150° at 8 knots 10,000+ meters
Clouds
  • Clear skies
Temperature Dewpoint
-4°C / 25°F -5°C / 23°F
Humidity Altimeter Pressure
93% 29.35" Hg 993.92 hPa